Time;durP1;ratioP1;P1;durP2;ratioP2;P2;SDS_P1;SDS_P2;PMS_P1;PMS_P2;Temp;Humidity;BMP_temperature;BMP_pressure;BME280_temperature;BME280_humidity;BME280_pressure;Samples;Min_cycle;Max_cycle;Signal;HPM_P1;HPM_P2
2021/06/01 00:00:35;;;;;;;8.10;6.07;;;;;;;13.37;55.41;94824.81;5055559;28;20495;-71
2021/06/01 00:03:02;;;;;;;6.70;6.00;;;;;;;12.96;56.37;94811.88;5062847;28;20439;-70
2021/06/01 00:05:29;;;;;;;6.63;6.00;;;;;;;12.86;57.10;94826.94;5059827;28;20539;-72
2021/06/01 00:07:56;;;;;;;6.20;5.60;;;;;;;13.18;56.67;94814.94;5052176;28;20443;-72
2021/06/01 00:10:23;;;;;;;6.17;5.60;;;;;;;13.10;56.39;94809.50;5058772;28;20493;-73
2021/06/01 00:12:50;;;;;;;6.47;5.87;;;;;;;12.92;56.88;94815.31;5072441;28;20448;-72
2021/06/01 00:15:17;;;;;;;6.77;6.07;;;;;;;13.32;55.94;94801.94;5052711;28;20445;-72
2021/06/01 00:17:44;;;;;;;7.83;5.67;;;;;;;13.09;56.49;94808.69;5052827;28;20435;-70
2021/06/01 00:20:11;;;;;;;7.23;6.07;;;;;;;13.28;56.06;94797.53;5068988;28;20817;-70
2021/06/01 00:22:38;;;;;;;5.97;5.37;;;;;;;13.50;55.25;94790.00;5072694;28;20442;-70
2021/06/01 00:25:06;;;;;;;5.43;4.93;;;;;;;13.62;54.62;94787.78;5069567;28;20492;-71
2021/06/01 00:27:32;;;;;;;5.80;5.30;;;;;;;13.71;54.35;94786.13;5052273;28;20635;-72
2021/06/01 00:29:59;;;;;;;5.47;4.93;;;;;;;13.63;54.19;94781.47;5065019;28;20490;-71
2021/06/01 00:32:26;;;;;;;5.47;4.97;;;;;;;13.55;54.35;94782.03;5065442;28;20932;-73
2021/06/01 00:34:53;;;;;;;5.20;4.70;;;;;;;13.78;54.37;94776.84;5064178;28;20492;-71
2021/06/01 00:37:20;;;;;;;5.20;4.70;;;;;;;13.41;54.73;94767.97;5071670;28;20438;-72
2021/06/01 00:39:47;;;;;;;5.07;4.57;;;;;;;13.56;54.76;94770.44;5057886;28;20439;-71
2021/06/01 00:42:14;;;;;;;4.83;4.40;;;;;;;13.56;54.46;94758.06;5071939;28;20473;-73
2021/06/01 00:44:41;;;;;;;4.90;4.50;;;;;;;13.59;54.66;94775.97;5071267;28;20444;-71
2021/06/01 00:47:08;;;;;;;4.90;4.37;;;;;;;13.66;54.21;94775.63;5057543;28;20446;-71
2021/06/01 00:49:35;;;;;;;6.53;4.90;;;;;;;13.43;54.68;94779.00;5070819;28;20476;-72
2021/06/01 00:52:02;;;;;;;6.63;5.00;;;;;;;13.54;54.76;94780.50;5071424;28;20524;-70
2021/06/01 00:54:32;;;;;;;5.23;4.73;;;;;;;13.63;54.26;94778.84;5071038;28;20434;-71
2021/06/01 00:56:59;;;;;;;5.57;5.07;;;;;;;13.32;55.29;94783.53;5071211;28;20485;-70
2021/06/01 00:59:26;;;;;;;5.40;4.90;;;;;;;13.72;54.90;94782.44;5071290;28;20426;-71
2021/06/01 01:01:53;;;;;;;5.40;4.90;;;;;;;13.57;54.85;94774.66;5056276;28;20465;-71
2021/06/01 01:04:20;;;;;;;5.63;5.13;;;;;;;14.09;53.52;94782.59;5065164;28;20438;-70
2021/06/01 01:06:57;;;;;;;5.80;5.30;;;;;;;14.21;52.68;94780.38;5051377;28;20822;-70
2021/06/01 01:09:27;;;;;;;5.00;4.57;;;;;;;13.96;53.37;94784.03;5066206;28;20872;-71
2021/06/01 01:12:02;;;;;;;5.50;5.00;;;;;;;14.23;53.54;94788.78;5065113;28;20457;-70
2021/06/01 01:14:33;;;;;;;5.80;5.30;;;;;;;14.00;53.51;94774.50;5050858;28;20446;-70
2021/06/01 01:17:05;;;;;;;4.80;4.30;;;;;;;13.95;53.73;94776.41;5064990;28;20451;-71
2021/06/01 01:19:34;;;;;;;4.60;4.20;;;;;;;14.19;52.70;94780.66;5050763;28;20447;-70
2021/06/01 01:22:02;;;;;;;4.87;4.47;;;;;;;13.98;53.02;94775.84;5055250;28;20468;-75
2021/06/01 01:24:56;;;;;;;4.97;4.57;;;;;;;14.00;54.04;94785.06;5070416;28;20450;-72
2021/06/01 01:27:46;;;;;;;5.23;4.83;;;;;;;14.45;52.64;94780.38;5050927;28;20443;-74
2021/06/01 01:30:16;;;;;;;6.00;5.40;;;;;;;14.02;52.72;94755.78;5064401;28;20580;-71
2021/06/01 01:32:56;;;;;;;5.67;5.17;;;;;;;14.03;53.35;94775.81;5051363;28;20447;-70
2021/06/01 01:35:25;;;;;;;6.67;6.07;;;;;;;14.22;53.98;94781.91;5052852;28;20430;-70
2021/06/01 01:37:54;;;;;;;5.87;5.33;;;;;;;14.34;53.43;94778.94;5071052;28;20442;-71
2021/06/01 01:40:25;;;;;;;6.23;5.70;;;;;;;14.17;53.43;94764.34;5070777;28;20454;-70
2021/06/01 01:43:00;;;;;;;6.10;5.60;;;;;;;14.03;54.67;94762.66;5061114;28;20435;-73
2021/06/01 01:45:33;;;;;;;6.70;6.10;;;;;;;14.07;55.43;94766.28;5064227;28;20463;-74
2021/06/01 01:50:53;;;;;;;6.80;6.20;;;;;;;13.97;55.73;94764.53;5050296;28;20836;-71
2021/06/01 01:53:20;;;;;;;5.80;4.83;;;;;;;13.97;55.58;94774.28;5063920;28;20449;-72
2021/06/01 01:55:51;;;;;;;4.93;4.53;;;;;;;14.18;55.33;94771.16;5070167;28;20465;-73
2021/06/01 01:58:19;;;;;;;5.73;5.10;;;;;;;14.26;55.13;94759.22;5058042;28;20450;-75
2021/06/01 02:00:49;;;;;;;5.43;4.93;;;;;;;14.30;54.80;94772.66;5054834;28;20448;-70
2021/06/01 02:03:19;;;;;;;4.70;4.30;;;;;;;13.88;55.18;94770.69;5059329;28;20439;-73
2021/06/01 02:05:47;;;;;;;6.60;4.70;;;;;;;14.23;54.68;94767.69;5056409;28;20435;-71
2021/06/01 02:08:14;;;;;;;4.97;4.57;;;;;;;14.16;55.41;94764.59;5064078;28;20443;-71
2021/06/01 02:10:41;;;;;;;5.27;4.77;;;;;;;13.94;55.80;94766.94;5050144;28;20482;-73
2021/06/01 02:13:08;;;;;;;4.87;4.47;;;;;;;14.20;54.66;94763.75;5063479;28;21024;-72
2021/06/01 02:15:35;;;;;;;5.10;4.70;;;;;;;14.26;54.59;94769.75;5050409;28;20550;-71
2021/06/01 02:18:03;;;;;;;4.97;4.47;;;;;;;14.17;54.71;94760.91;5063219;28;20461;-72
2021/06/01 02:20:30;;;;;;;7.00;4.90;;;;;;;14.18;55.34;94762.47;5050079;28;20431;-71
2021/06/01 02:25:43;;;;;;;5.40;4.90;;;;;;;13.80;56.42;94748.38;5055954;28;21064;-73
2021/06/01 02:28:41;;;;;;;6.90;5.40;;;;;;;13.86;56.54;94760.44;5057359;28;20508;-71
2021/06/01 02:31:16;;;;;;;5.47;4.97;;;;;;;13.89;56.20;94751.19;5052971;28;20490;-71
2021/06/01 02:33:45;;;;;;;5.23;4.77;;;;;;;13.69;57.85;94764.53;5049183;28;20449;-78
2021/06/01 02:36:17;;;;;;;5.70;5.20;;;;;;;14.15;56.30;94761.19;5048668;28;20443;-73
2021/06/01 02:38:45;;;;;;;6.33;5.17;;;;;;;13.81;56.85;94757.06;5068502;28;20541;-76
2021/06/01 02:41:14;;;;;;;5.43;4.93;;;;;;;13.80;57.24;94766.03;5070032;28;20441;-73
2021/06/01 02:43:41;;;;;;;4.87;4.47;;;;;;;13.69;57.27;94767.16;5069314;28;20827;-73
2021/06/01 02:46:08;;;;;;;5.27;4.77;;;;;;;13.44;57.88;94762.13;5070170;28;20456;-75
2021/06/01 02:48:36;;;;;;;5.37;4.87;;;;;;;13.57;57.58;94772.03;5069404;28;20445;-72
2021/06/01 02:51:17;;;;;;;5.13;4.63;;;;;;;13.21;58.80;94772.28;5069537;28;21014;-74
2021/06/01 02:53:48;;;;;;;5.27;4.77;;;;;;;13.38;58.06;94771.13;5054128;28;20505;-74
2021/06/01 02:56:16;;;;;;;5.50;4.53;;;;;;;13.62;57.33;94777.25;5060473;28;20788;-72
2021/06/01 02:58:45;;;;;;;4.40;4.00;;;;;;;13.50;57.79;94771.56;5068734;28;20468;-73
2021/06/01 03:01:13;;;;;;;4.40;4.00;;;;;;;13.56;57.17;94757.28;5073827;28;20450;-73
2021/06/01 03:03:53;;;;;;;4.50;4.00;;;;;;;13.51;57.42;94770.50;5058901;28;20824;-76
2021/06/01 03:06:22;;;;;;;4.87;4.30;;;;;;;13.67;57.32;94777.19;5058423;28;20512;-75
2021/06/01 03:08:49;;;;;;;4.87;4.47;;;;;;;13.76;56.91;94778.16;5052670;28;20537;-75
2021/06/01 03:11:19;;;;;;;5.07;4.57;;;;;;;13.81;56.82;94778.13;5066990;28;20512;-74
2021/06/01 03:13:52;;;;;;;5.07;4.40;;;;;;;13.62;57.25;94777.25;5066751;28;20427;-71
2021/06/01 03:16:21;;;;;;;4.97;4.37;;;;;;;13.38;57.84;94777.16;5053680;28;21220;-76
2021/06/01 03:18:48;;;;;;;5.57;4.10;;;;;;;13.31;57.65;94765.38;5066793;28;21022;-75
2021/06/01 03:21:15;;;;;;;4.27;3.63;;;;;;;13.39;57.62;94777.97;5053367;28;20756;-71
2021/06/01 03:23:45;;;;;;;4.50;4.10;;;;;;;13.30;58.35;94774.34;5070770;28;20438;-72
2021/06/01 03:26:13;;;;;;;5.17;4.67;;;;;;;13.11;59.65;94772.38;5062172;28;20455;-71
2021/06/01 03:28:40;;;;;;;5.50;5.00;;;;;;;12.29;62.15;94756.50;5069426;28;20441;-73
2021/06/01 03:31:07;;;;;;;6.57;5.30;;;;;;;12.48;63.20;94778.47;5073144;28;20473;-71
2021/06/01 03:33:35;;;;;;;7.27;4.60;;;;;;;12.70;63.08;94776.25;5058776;28;20473;-73
2021/06/01 03:36:03;;;;;;;5.97;5.47;;;;;;;12.73;63.06;94754.72;5065493;28;20488;-71
2021/06/01 03:38:32;;;;;;;5.70;5.20;;;;;;;12.98;62.73;94772.97;5069702;28;20504;-73
2021/06/01 03:40:59;;;;;;;5.73;5.20;;;;;;;12.19;64.90;94753.88;5072925;28;20437;-72
2021/06/01 03:43:26;;;;;;;5.50;5.00;;;;;;;13.11;62.94;94777.66;5070730;28;20442;-70
2021/06/01 03:45:54;;;;;;;6.87;5.33;;;;;;;13.00;62.73;94777.94;5072861;28;20456;-70
2021/06/01 03:48:21;;;;;;;5.77;5.17;;;;;;;13.33;62.04;94779.06;5057447;28;20470;-73
2021/06/01 03:50:47;;;;;;;5.80;5.30;;;;;;;13.32;62.19;94772.25;5065043;28;20474;-72
2021/06/01 03:53:14;;;;;;;5.63;5.13;;;;;;;12.94;63.04;94768.50;5067448;28;20457;-72
2021/06/01 03:55:41;;;;;;;5.13;4.63;;;;;;;12.65;63.35;94763.16;5063712;28;20956;-71
2021/06/01 03:58:08;;;;;;;5.37;4.87;;;;;;;13.05;63.06;94768.19;5059548;28;20477;-71
2021/06/01 04:00:36;;;;;;;5.73;4.87;;;;;;;12.98;62.86;94759.81;5058920;28;20857;-73
2021/06/01 04:03:02;;;;;;;4.77;4.30;;;;;;;12.94;62.90;94757.97;5073624;28;20430;-72
2021/06/01 04:05:29;;;;;;;4.30;3.90;;;;;;;13.40;61.65;94761.09;5071401;28;20434;-71
2021/06/01 04:07:56;;;;;;;4.40;4.00;;;;;;;13.41;61.61;94757.44;5071224;28;21209;-76
2021/06/01 04:10:25;;;;;;;4.37;3.30;;;;;;;13.31;61.12;94754.88;5071836;28;20473;-74
2021/06/01 04:12:52;;;;;;;3.50;3.20;;;;;;;13.23;60.80;94749.13;5071977;28;20515;-71
2021/06/01 04:15:19;;;;;;;3.83;3.47;;;;;;;13.13;60.28;94758.94;5069134;28;20971;-73
2021/06/01 04:17:46;;;;;;;3.90;3.50;;;;;;;13.28;60.34;94760.69;5070051;28;20434;-76
2021/06/01 04:20:20;;;;;;;6.00;3.53;;;;;;;13.13;60.51;94757.13;5068990;28;21222;-73
2021/06/01 04:22:49;;;;;;;4.00;3.60;;;;;;;13.00;60.81;94755.06;5067585;28;20442;-72
2021/06/01 04:25:18;;;;;;;3.70;3.40;;;;;;;12.85;60.67;94757.78;5069870;28;20867;-72
2021/06/01 04:27:45;;;;;;;3.80;3.50;;;;;;;13.12;59.94;94762.63;5069244;28;20437;-75
2021/06/01 04:30:13;;;;;;;6.30;3.47;;;;;;;13.43;59.69;94753.44;5070762;28;20561;-72
2021/06/01 04:32:41;;;;;;;22.37;15.60;;;;;;;13.70;59.35;94756.38;5068205;28;20452;-74
2021/06/01 04:35:09;;;;;;;144.77;102.67;;;;;;;13.72;58.85;94761.38;5068904;28;20434;-74
2021/06/01 04:37:36;;;;;;;20.03;15.47;;;;;;;13.40;59.47;94748.75;5070219;28;20442;-72
2021/06/01 04:40:04;;;;;;;4.93;4.43;;;;;;;13.61;59.63;94750.13;5065784;28;20438;-74
2021/06/01 04:42:31;;;;;;;4.57;4.17;;;;;;;13.55;59.62;94745.97;5071150;28;20438;-73
2021/06/01 04:44:57;;;;;;;4.43;4.03;;;;;;;13.51;60.15;94760.75;5068211;28;20426;-65
2021/06/01 04:47:24;;;;;;;6.07;4.43;;;;;;;13.59;60.75;94762.81;5068967;28;20537;-66
2021/06/01 04:49:51;;;;;;;4.90;4.30;;;;;;;13.23;61.63;94770.19;5070775;28;20458;-67
2021/06/01 04:52:18;;;;;;;5.13;4.63;;;;;;;12.93;63.58;94770.38;5069653;28;20450;-68
2021/06/01 04:54:45;;;;;;;6.50;4.80;;;;;;;13.16;63.39;94764.44;5069735;28;20971;-70
2021/06/01 04:57:13;;;;;;;5.30;4.80;;;;;;;12.76;64.36;94769.94;5070991;28;20503;-67
2021/06/01 04:59:40;;;;;;;19.63;17.37;;;;;;;13.03;64.89;94759.78;5068464;28;20521;-71
2021/06/01 05:02:07;;;;;;;143.87;116.47;;;;;;;13.16;64.62;94761.03;5068969;28;20434;-67
2021/06/01 05:04:34;;;;;;;13.43;11.60;;;;;;;12.81;65.69;94777.78;5067983;28;20553;-67
2021/06/01 05:07:02;;;;;;;5.90;5.00;;;;;;;12.84;65.70;94756.22;5070191;28;20438;-66
2021/06/01 05:09:28;;;;;;;5.93;5.33;;;;;;;12.77;65.84;94773.34;5070062;28;20449;-64
2021/06/01 05:11:55;;;;;;;5.47;4.90;;;;;;;12.75;65.58;94768.38;5053397;28;20438;-69
2021/06/01 05:14:23;;;;;;;6.53;4.97;;;;;;;12.83;65.33;94759.91;5050203;28;20523;-66
2021/06/01 05:16:50;;;;;;;6.20;5.10;;;;;;;12.98;65.27;94767.69;5062440;28;20451;-71
2021/06/01 05:19:17;;;;;;;5.63;5.07;;;;;;;12.92;65.24;94757.47;5051977;28;20821;-68
2021/06/01 05:21:44;;;;;;;6.13;4.83;;;;;;;13.11;64.62;94764.50;5053650;28;20436;-69
2021/06/01 05:24:11;;;;;;;5.73;5.13;;;;;;;13.08;64.45;94769.50;5061255;28;20470;-70
2021/06/01 05:26:41;;;;;;;5.67;4.80;;;;;;;13.31;63.97;94775.91;5067346;28;20886;-67
2021/06/01 05:29:09;;;;;;;5.47;4.80;;;;;;;13.32;63.91;94769.59;5050509;28;20443;-66
2021/06/01 05:34:29;;;;;;;6.40;4.50;;;;;;;13.58;63.38;94760.41;5052740;28;21040;-71
2021/06/01 05:36:56;;;;;;;5.17;4.67;;;;;;;13.73;63.15;94760.28;5058034;28;20959;-66
2021/06/01 05:39:23;;;;;;;6.73;4.60;;;;;;;13.55;62.23;94755.72;5070701;28;20453;-69
2021/06/01 05:41:50;;;;;;;5.73;4.43;;;;;;;13.49;62.12;94762.09;5071132;28;20434;-65
2021/06/01 05:44:17;;;;;;;4.77;4.30;;;;;;;13.80;61.51;94763.38;5070409;28;20442;-68
2021/06/01 05:46:44;;;;;;;5.47;4.40;;;;;;;13.46;62.63;94763.44;5070077;28;20453;-68
2021/06/01 05:49:12;;;;;;;5.00;4.50;;;;;;;13.74;62.41;94770.53;5057366;28;20798;-65
2021/06/01 05:51:39;;;;;;;5.60;4.20;;;;;;;14.09;61.12;94772.03;5057122;28;20482;-67
2021/06/01 05:54:07;;;;;;;5.53;4.10;;;;;;;13.73;61.37;94757.66;5069559;28;20442;-68
2021/06/01 05:56:35;;;;;;;5.77;5.00;;;;;;;13.90;62.38;94758.03;5070324;28;20441;-68
2021/06/01 05:59:04;;;;;;;5.20;4.50;;;;;;;13.81;62.47;94770.25;5065613;28;20443;-69
2021/06/01 06:01:32;;;;;;;4.90;3.97;;;;;;;13.81;61.62;94754.44;5061185;28;20445;-71
2021/06/01 06:04:00;;;;;;;4.10;3.70;;;;;;;13.83;60.94;94747.03;5069256;28;20481;-68
2021/06/01 06:06:26;;;;;;;3.27;2.97;;;;;;;14.06;60.38;94749.69;5054067;28;20455;-65
2021/06/01 06:08:53;;;;;;;4.20;3.80;;;;;;;14.10;60.41;94757.81;5050204;28;20541;-68
2021/06/01 06:11:20;;;;;;;3.87;3.43;;;;;;;14.16;60.03;94754.84;5050319;28;20493;-68
2021/06/01 06:13:47;;;;;;;4.77;3.70;;;;;;;14.04;59.90;94748.41;5069713;28;20441;-65
2021/06/01 06:16:18;;;;;;;3.33;3.03;;;;;;;14.29;58.94;94750.78;5070241;28;20453;-67
2021/06/01 06:18:52;;;;;;;5.27;3.30;;;;;;;13.93;59.52;94753.00;5069220;28;20481;-66
2021/06/01 06:21:19;;;;;;;3.60;3.30;;;;;;;14.19;60.15;94758.78;5070166;28;20441;-65
2021/06/01 06:23:46;;;;;;;4.13;3.70;;;;;;;13.94;59.66;94756.41;5055911;28;20450;-67
2021/06/01 06:26:12;;;;;;;4.20;3.80;;;;;;;14.16;59.04;94746.94;5059248;28;20496;-70
2021/06/01 06:28:39;;;;;;;3.63;3.20;;;;;;;14.12;58.81;94753.06;5049220;28;20443;-69
2021/06/01 06:31:07;;;;;;;3.80;3.50;;;;;;;14.26;59.31;94756.59;5049452;28;20490;-66
2021/06/01 06:33:34;;;;;;;3.50;3.20;;;;;;;14.22;57.99;94758.19;5049000;28;20439;-71
2021/06/01 06:36:01;;;;;;;3.40;2.87;;;;;;;14.02;59.13;94756.59;5049845;28;20482;-69
2021/06/01 06:38:28;;;;;;;4.20;3.47;;;;;;;14.05;58.30;94749.97;5063690;28;20439;-67
2021/06/01 06:43:31;;;;;;;5.20;3.07;;;;;;;14.38;56.72;94767.53;5069193;28;20445;-65
2021/06/01 06:46:01;;;;;;;3.97;3.10;;;;;;;13.74;57.88;94772.41;5068893;28;20964;-63
2021/06/01 06:48:28;;;;;;;3.87;3.30;;;;;;;14.16;57.85;94759.31;5069620;28;20628;-66
2021/06/01 06:50:55;;;;;;;4.37;3.00;;;;;;;13.59;58.51;94770.69;5062603;28;20479;-71
2021/06/01 06:53:22;;;;;;;4.83;2.90;;;;;;;13.61;58.43;94765.16;5049664;28;20550;-67
2021/06/01 06:55:49;;;;;;;5.97;3.47;;;;;;;14.27;58.61;94766.06;5069648;28;20438;-70
2021/06/01 06:58:16;;;;;;;6.53;3.70;;;;;;;14.19;57.56;94772.75;5069132;28;20446;-64
2021/06/01 07:00:43;;;;;;;4.70;3.10;;;;;;;14.12;57.71;94766.22;5069810;28;20445;-66
2021/06/01 07:03:10;;;;;;;4.80;3.17;;;;;;;13.96;57.02;94767.44;5069750;28;20434;-63
2021/06/01 07:05:36;;;;;;;4.13;3.20;;;;;;;14.45;56.26;94769.84;5060815;28;20442;-68
2021/06/01 07:08:04;;;;;;;5.90;3.50;;;;;;;14.87;56.07;94765.31;5062986;28;20552;-66
2021/06/01 07:10:31;;;;;;;4.80;3.60;;;;;;;13.92;57.49;94771.72;5050141;28;20478;-67
2021/06/01 07:13:01;;;;;;;7.00;3.40;;;;;;;14.36;57.63;94761.75;5049334;28;20450;-66
2021/06/01 07:15:40;;;;;;;7.60;3.33;;;;;;;14.75;56.09;94764.97;5056241;28;20435;-70
2021/06/01 07:18:07;;;;;;;3.37;2.80;;;;;;;14.59;55.49;94760.16;5054787;28;21007;-66
2021/06/01 07:20:35;;;;;;;3.77;3.30;;;;;;;15.08;54.62;94753.44;5049911;28;20443;-65
2021/06/01 07:23:02;;;;;;;5.83;3.40;;;;;;;15.17;54.88;94751.72;5049183;28;20443;-66
2021/06/01 07:25:30;;;;;;;5.10;3.40;;;;;;;15.29;53.85;94758.41;5049214;28;20446;-69
2021/06/01 07:27:57;;;;;;;3.60;2.90;;;;;;;15.41;53.23;94756.13;5049177;28;20550;-67
2021/06/01 07:30:24;;;;;;;5.00;3.23;;;;;;;15.20;53.60;94755.63;5051960;28;20462;-63
2021/06/01 07:32:51;;;;;;;4.93;2.80;;;;;;;15.15;53.64;94753.84;5069559;28;20438;-70
2021/06/01 07:35:20;;;;;;;7.40;2.60;;;;;;;15.14;53.53;94757.53;5054708;28;20443;-64
2021/06/01 07:37:47;;;;;;;3.20;2.88;;;;;;;14.47;53.44;94757.16;5069460;28;20440;-65
2021/06/01 07:40:15;;;;;;;4.77;2.90;;;;;;;14.48;54.22;94748.19;5051257;28;20549;-66
2021/06/01 07:42:42;;;;;;;3.37;3.07;;;;;;;14.40;53.77;94752.22;5049080;28;20445;-67
2021/06/01 07:45:10;;;;;;;5.23;3.10;;;;;;;14.07;54.22;94782.06;5067504;28;20444;-67
2021/06/01 07:47:37;;;;;;;4.43;3.57;;;;;;;14.72;53.86;94765.56;5072722;28;20484;-66
2021/06/01 07:50:06;;;;;;;3.80;3.50;;;;;;;14.46;54.21;94771.41;5072321;28;20441;-67
2021/06/01 07:52:33;;;;;;;5.07;4.30;;;;;;;14.57;54.28;94762.31;5072819;28;20489;-68
2021/06/01 07:55:00;;;;;;;7.83;4.57;;;;;;;15.10;53.96;94764.50;5072371;28;20448;-66
2021/06/01 07:57:27;;;;;;;5.43;4.70;;;;;;;15.47;52.76;94765.53;5067312;28;20446;-67
2021/06/01 07:59:53;;;;;;;5.80;4.97;;;;;;;15.68;52.35;94764.91;5063319;28;20457;-65
2021/06/01 08:02:20;;;;;;;5.37;4.80;;;;;;;15.83;52.48;94763.88;5069331;28;20795;-68
2021/06/01 08:04:47;;;;;;;7.07;5.07;;;;;;;15.42;52.04;94757.72;5061310;28;20440;-62
2021/06/01 08:07:16;;;;;;;6.43;5.20;;;;;;;15.61;52.80;94746.03;5072504;28;20831;-64
2021/06/01 08:09:43;;;;;;;6.47;5.60;;;;;;;16.09;52.81;94762.38;5072273;28;20457;-66
2021/06/01 08:12:11;;;;;;;7.43;5.20;;;;;;;15.84;51.85;94765.44;5065332;28;20866;-69
2021/06/01 08:14:39;;;;;;;8.13;5.70;;;;;;;15.64;51.57;94776.34;5065415;28;20446;-68
2021/06/01 08:17:06;;;;;;;5.87;5.27;;;;;;;15.07;52.39;94767.69;5052347;28;20461;-69
2021/06/01 08:19:39;;;;;;;6.07;5.53;;;;;;;14.77;53.60;94773.38;5051870;28;20442;-65
2021/06/01 08:24:37;;;;;;;7.50;6.73;;;;;;;14.63;55.23;94780.44;5060260;28;20447;-62
2021/06/01 08:27:05;;;;;;;8.13;7.27;;;;;;;14.66;56.15;94786.97;5050267;28;20447;-73
2021/06/01 08:29:32;;;;;;;9.30;7.43;;;;;;;14.73;56.64;94777.66;5051187;28;20466;-71
2021/06/01 08:31:59;;;;;;;8.47;6.97;;;;;;;13.81;58.63;94786.81;5053884;28;20582;-67
2021/06/01 08:34:26;;;;;;;8.90;8.00;;;;;;;14.16;59.55;94791.72;5062902;28;20435;-68
2021/06/01 08:36:54;;;;;;;9.00;7.87;;;;;;;14.35;59.63;94785.75;5055739;28;20821;-63
2021/06/01 08:39:28;;;;;;;12.13;8.30;;;;;;;14.54;58.66;94784.75;5071776;28;20549;-64
2021/06/01 08:41:56;;;;;;;9.90;8.10;;;;;;;14.69;58.25;94781.91;5071569;28;20819;-67
2021/06/01 08:44:27;;;;;;;10.33;7.97;;;;;;;14.83;57.34;94777.53;5071259;28;20557;-63
2021/06/01 08:46:55;;;;;;;8.27;7.47;;;;;;;14.98;57.93;94774.66;5071588;28;20450;-64
2021/06/01 08:49:23;;;;;;;8.93;7.47;;;;;;;15.10;57.93;94767.13;5071577;28;20431;-64
2021/06/01 08:51:50;;;;;;;8.40;6.53;;;;;;;15.10;57.46;94771.63;5072422;28;20477;-65
2021/06/01 08:54:18;;;;;;;7.87;6.57;;;;;;;15.35;58.31;94781.00;5071575;28;20442;-69
2021/06/01 08:56:46;;;;;;;6.07;5.57;;;;;;;14.87;57.31;94781.16;5058586;28;20450;-65
2021/06/01 08:59:13;;;;;;;6.30;5.70;;;;;;;14.78;57.91;94779.47;5070855;28;20460;-65
2021/06/01 09:01:42;;;;;;;6.37;5.03;;;;;;;14.67;56.82;94778.00;5071427;28;20438;-63
2021/06/01 09:04:11;;;;;;;5.47;4.97;;;;;;;14.65;55.64;94775.63;5070959;28;20871;-65
2021/06/01 09:14:53;;;;;;;9.10;5.77;;;;;;;15.42;54.79;94771.69;5071188;28;20641;-67
2021/06/01 09:22:59;;;;;;;9.90;4.50;;;;;;;14.96;53.75;94776.81;5063301;28;20521;-66
2021/06/01 09:27:56;;;;;;;5.20;4.70;;;;;;;15.65;53.04;94764.72;5062370;28;20485;-65
2021/06/01 09:30:38;;;;;;;8.40;4.47;;;;;;;15.98;51.63;94761.75;5066872;28;20474;-67
2021/06/01 09:33:25;;;;;;;5.80;5.07;;;;;;;15.65;52.04;94770.00;5051210;28;20438;-66
2021/06/01 09:35:57;;;;;;;5.93;4.50;;;;;;;15.68;51.84;94777.34;5051327;28;20439;-64
2021/06/01 09:38:30;;;;;;;6.87;4.43;;;;;;;15.84;52.11;94770.72;5066808;28;21019;-70
2021/06/01 09:41:05;;;;;;;7.30;4.63;;;;;;;16.02;52.15;94772.53;5070400;28;20543;-69
2021/06/01 09:43:34;;;;;;;5.73;4.70;;;;;;;15.53;51.17;94775.72;5070404;28;20473;-67
2021/06/01 09:46:26;;;;;;;4.90;4.43;;;;;;;15.93;51.12;94763.72;5070792;28;20437;-69
2021/06/01 09:48:55;;;;;;;5.87;4.70;;;;;;;15.81;50.54;94764.19;5056250;28;20477;-69
2021/06/01 09:51:36;;;;;;;5.43;4.93;;;;;;;15.96;51.30;94768.41;5070443;28;20829;-69
2021/06/01 09:54:41;;;;;;;5.67;5.17;;;;;;;15.83;51.52;94769.16;5055855;28;20438;-67
2021/06/01 09:57:19;;;;;;;10.13;5.07;;;;;;;15.90;50.34;94764.28;5070131;28;20444;-69
2021/06/01 10:00:12;;;;;;;5.37;4.90;;;;;;;15.93;50.55;94759.19;5059693;28;20451;-72
2021/06/01 10:02:50;;;;;;;6.33;5.73;;;;;;;15.83;49.89;94769.16;5050105;28;20943;-69
2021/06/01 10:05:32;;;;;;;6.00;5.40;;;;;;;15.74;49.50;94752.41;5056882;28;20854;-69
2021/06/01 10:08:09;;;;;;;8.17;5.33;;;;;;;15.37;50.17;94770.94;5050179;28;20449;-65
2021/06/01 10:10:37;;;;;;;8.70;6.03;;;;;;;16.02;49.78;94756.69;5062295;28;20508;-65
2021/06/01 10:13:09;;;;;;;11.37;6.20;;;;;;;15.99;49.15;94767.81;5049458;28;20493;-66
2021/06/01 10:15:37;;;;;;;7.33;6.07;;;;;;;15.85;48.93;94769.66;5057885;28;20446;-64
2021/06/01 10:18:07;;;;;;;6.37;5.60;;;;;;;15.91;49.74;94766.63;5069980;28;20457;-67
2021/06/01 10:20:37;;;;;;;6.50;5.90;;;;;;;16.39;49.12;94745.91;5056385;28;20952;-74
2021/06/01 10:23:06;;;;;;;7.13;5.97;;;;;;;16.27;48.52;94756.22;5068511;28;21048;-69
2021/06/01 10:25:34;;;;;;;6.13;5.53;;;;;;;16.52;47.97;94750.44;5065241;28;20435;-69
2021/06/01 10:28:03;;;;;;;6.87;5.00;;;;;;;16.34;47.59;94740.72;5061501;28;20457;-68
2021/06/01 10:30:33;;;;;;;5.77;5.27;;;;;;;16.62;46.86;94750.25;5051447;28;20471;-67
2021/06/01 10:33:03;;;;;;;6.90;5.93;;;;;;;16.43;48.00;94760.13;5049632;28;20491;-67
2021/06/01 10:35:38;;;;;;;5.97;5.47;;;;;;;16.88;46.33;94743.31;5064336;28;20504;-67
2021/06/01 10:50:26;;;;;;;5.60;4.17;;;;;;;18.22;43.47;94734.25;5069604;28;20540;-64
2021/06/01 10:53:07;;;;;;;6.27;4.50;;;;;;;18.23;43.44;94736.59;5069749;28;20482;-66
2021/06/01 10:56:03;;;;;;;5.33;4.83;;;;;;;16.94;45.85;94768.59;5055640;28;20828;-68
2021/06/01 10:58:41;;;;;;;8.93;5.90;;;;;;;16.01;50.61;94776.25;5068809;28;20802;-65
2021/06/01 11:04:30;;;;;;;7.23;6.47;;;;;;;15.62;52.45;94760.78;5066593;28;20645;-65
2021/06/01 11:07:10;;;;;;;9.30;7.30;;;;;;;16.16;53.54;94773.34;5049751;28;20465;-68
2021/06/01 11:09:38;;;;;;;8.90;6.20;;;;;;;15.68;53.27;94770.22;5063118;28;20449;-67
2021/06/01 11:12:24;;;;;;;9.80;6.90;;;;;;;16.03;52.02;94766.97;5063185;28;20471;-67
2021/06/01 11:14:57;;;;;;;8.83;7.23;;;;;;;16.04;51.18;94768.50;5049033;28;20447;-64
2021/06/01 11:17:35;;;;;;;8.27;7.07;;;;;;;16.11;50.42;94765.50;5057830;28;20977;-67
2021/06/01 11:20:29;;;;;;;8.53;5.90;;;;;;;15.93;48.97;94769.00;5057433;28;20531;-69
2021/06/01 11:23:29;;;;;;;9.00;5.83;;;;;;;16.26;48.51;94757.25;5073278;28;20446;-70
2021/06/01 11:34:00;;;;;;;8.40;6.50;;;;;;;16.51;47.33;94770.06;5072651;28;20445;-64
2021/06/01 11:36:38;;;;;;;7.77;6.97;;;;;;;16.17;47.66;94774.88;5061808;28;20963;-64
2021/06/01 11:39:33;;;;;;;8.37;6.53;;;;;;;16.40;47.52;94773.16;5072689;28;20445;-70
2021/06/01 11:44:44;;;;;;;5.37;4.87;;;;;;;17.05;46.94;94780.53;5072988;28;20453;-68
2021/06/01 11:47:26;;;;;;;5.57;5.07;;;;;;;17.01;47.66;94779.56;5072567;28;20506;-68
2021/06/01 11:52:39;;;;;;;4.20;3.80;;;;;;;16.75;45.70;94769.84;5052928;28;20573;-68
2021/06/01 11:55:08;;;;;;;3.57;3.17;;;;;;;16.53;45.26;94773.16;5066468;28;21283;-70
2021/06/01 12:02:01;;;;;;;4.67;3.53;;;;;;;16.89;45.34;94760.78;5059011;28;20948;-70
2021/06/01 12:03:21;;;;;;;6.17;3.87;;;;;;;16.31;46.83;94778.34;5072303;28;20466;-68
2021/06/01 12:11:38;;;;;;;3.60;3.30;;;;;;;16.29;46.07;94783.13;5052189;28;20443;-68
2021/06/01 12:17:09;;;;;;;6.47;3.13;;;;;;;15.87;46.63;94786.81;5062943;28;20530;-67
2021/06/01 12:17:20;;;;;;;5.20;3.60;;;;;;;16.43;46.61;94778.63;5058700;28;20441;-69
2021/06/01 12:19:48;;;;;;;6.03;3.60;;;;;;;16.53;46.54;94773.16;5057506;28;20447;-65
2021/06/01 12:22:15;;;;;;;4.47;3.87;;;;;;;16.31;46.62;94783.63;5058603;28;20438;-65
2021/06/01 12:24:42;;;;;;;4.13;3.73;;;;;;;16.22;47.81;94798.59;5072098;28;20450;-68
2021/06/01 12:27:21;;;;;;;5.00;4.20;;;;;;;16.33;48.71;94785.97;5072270;28;20434;-65
2021/06/01 12:33:09;;;;;;;6.30;4.90;;;;;;;16.35;51.80;94803.09;5071832;28;20564;-66
2021/06/01 12:36:57;;;;;;;5.53;5.03;;;;;;;15.80;51.61;94806.75;5057731;28;20524;-70
2021/06/01 12:44:03;;;;;;;7.73;5.67;;;;;;;15.35;54.48;94812.69;5069765;28;20924;-67
2021/06/01 12:47:02;;;;;;;6.07;5.57;;;;;;;15.35;55.30;94810.03;5071868;28;20453;-64
2021/06/01 13:20:05;;;;;;;3.60;2.30;;;;;;;15.55;52.64;94849.38;5051788;28;20629;-70
2021/06/01 13:39:10;;;;;;;4.33;2.20;;;;;;;15.52;52.33;94839.41;5057119;28;20446;-65
2021/06/01 13:47:19;;;;;;;5.20;2.23;;;;;;;15.94;52.61;94844.56;5069993;28;20454;-65
2021/06/01 13:50:07;;;;;;;6.17;2.43;;;;;;;16.43;51.95;94851.88;5070153;28;20528;-68
2021/06/01 13:55:43;;;;;;;3.70;2.27;;;;;;;15.93;51.56;94854.31;5028110;28;20444;-67
2021/06/01 14:00:55;;;;;;;3.50;2.10;;;;;;;15.57;52.56;94861.25;5066850;28;20801;-72